createdAt,value
2019-02-21T00:01:06.700Z,3.5
2019-02-21T00:06:06.458Z,3.64
2019-02-21T00:11:06.815Z,3.69
2019-02-21T00:16:06.666Z,3.54
2019-02-21T00:20:06.573Z,3.14
2019-02-21T00:25:07.201Z,2.74
2019-02-21T00:30:07.911Z,2.4
2019-02-21T00:35:07.475Z,2.3
2019-02-21T00:40:06.997Z,2.24
2019-02-21T00:45:09.095Z,2.06
2019-02-21T00:50:06.263Z,2
2019-02-21T00:55:06.784Z,1.8
2019-02-21T00:59:07.188Z,1.45
2019-02-21T01:04:07.239Z,1.31
2019-02-21T01:09:07.137Z,1.43
2019-02-21T01:14:07.495Z,1.36
2019-02-21T01:19:06.783Z,1.88
2019-02-21T01:24:07.376Z,2.25
2019-02-21T01:29:06.574Z,2.28
2019-02-21T01:34:07.074Z,2.36
2019-02-21T01:38:06.784Z,2.46
2019-02-21T01:43:06.052Z,2.41
2019-02-21T01:48:06.314Z,2.36
2019-02-21T01:53:06.275Z,2.43
2019-02-21T01:58:06.074Z,2.58
2019-02-21T02:03:09.554Z,2.64
2019-02-21T02:08:07.815Z,2.83
2019-02-21T02:13:07.211Z,2.94
2019-02-21T02:17:07.380Z,2.94
2019-02-21T02:22:06.282Z,2.99
2019-02-21T02:27:06.195Z,2.98
2019-02-21T02:32:09.520Z,3.12
2019-02-21T02:37:06.629Z,3.29
2019-02-21T02:42:06.972Z,3.21
2019-02-21T02:47:06.681Z,3.04
2019-02-21T02:52:06.595Z,2.96
2019-02-21T02:56:06.866Z,2.98
2019-02-21T03:01:06.261Z,3.01
2019-02-21T03:06:06.292Z,3.05
2019-02-21T03:11:06.692Z,3.05
2019-02-21T03:16:06.147Z,2.98
2019-02-21T03:21:06.225Z,2.88
2019-02-21T03:26:06.264Z,2.87
2019-02-21T03:31:06.992Z,2.78
2019-02-21T03:35:07.220Z,2.65
2019-02-21T03:40:07.155Z,2.52
2019-02-21T03:45:07.887Z,2.37
2019-02-21T03:50:07.604Z,2.28
2019-02-21T03:55:06.816Z,2.28
2019-02-21T04:00:08.629Z,2.35
2019-02-21T04:05:06.287Z,2.58
2019-02-21T04:10:06.540Z,2.61
2019-02-21T04:14:06.766Z,2.6
2019-02-21T04:19:07.834Z,2.61
2019-02-21T04:24:06.676Z,2.73
2019-02-21T04:29:07.592Z,2.86
2019-02-21T04:34:06.075Z,2.86
2019-02-21T04:39:07.479Z,2.84
2019-02-21T04:44:07.403Z,2.81
2019-02-21T04:49:07.072Z,2.85
2019-02-21T04:53:06.456Z,3.06
2019-02-21T04:58:07.498Z,3.06
2019-02-21T05:03:06.671Z,3.02
2019-02-21T05:08:07.788Z,3.08
2019-02-21T05:13:06.176Z,3.15
2019-02-21T05:18:08.101Z,3.13
2019-02-21T05:23:06.115Z,3.05
2019-02-21T05:28:06.782Z,3.2
2019-02-21T05:32:07.196Z,3.47
2019-02-21T05:37:06.229Z,3.62
2019-02-21T05:42:06.958Z,3.67
2019-02-21T05:47:06.917Z,3.82
2019-02-21T05:52:06.762Z,3.76
2019-02-21T05:57:06.647Z,3.82
2019-02-21T06:02:06.505Z,3.88
2019-02-21T06:07:10.240Z,3.97
2019-02-21T06:11:06.916Z,3.93
2019-02-21T06:16:06.663Z,3.95
2019-02-21T06:21:06.663Z,3.95
2019-02-21T06:26:06.840Z,3.99
2019-02-21T06:31:06.403Z,3.91
2019-02-21T06:36:06.431Z,3.88
2019-02-21T06:41:07.533Z,3.92
2019-02-21T06:46:06.734Z,3.93
2019-02-21T06:50:07.371Z,3.97
2019-02-21T06:55:06.981Z,4.05
2019-02-21T06:56:06.080Z,4.05
2019-02-21T07:00:08.358Z,4.28
2019-02-21T07:05:06.893Z,4.46
2019-02-21T07:10:06.595Z,4.82
2019-02-21T07:15:08.773Z,5.21
2019-02-21T07:20:06.780Z,5.49
2019-02-21T07:25:07.499Z,5.78
2019-02-21T07:29:06.902Z,5.91
2019-02-21T07:34:07.113Z,6.11
2019-02-21T07:35:06.944Z,6.11
2019-02-21T07:39:16.687Z,6.23
2019-02-21T07:44:13.031Z,6.34
2019-02-21T07:49:06.292Z,6.56
2019-02-21T07:54:06.169Z,6.68
2019-02-21T07:59:06.056Z,6.75
2019-02-21T08:04:06.516Z,6.83
2019-02-21T08:08:09.187Z,6.85
2019-02-21T08:13:06.952Z,6.97
2019-02-21T08:18:06.116Z,7.05
2019-02-21T08:23:06.943Z,7.5
2019-02-21T08:28:06.819Z,8.06
2019-02-21T08:33:06.559Z,8.19
2019-02-21T08:38:06.440Z,8.28
2019-02-21T08:43:06.662Z,8.51
2019-02-21T08:47:06.847Z,8.67
2019-02-21T08:52:07.231Z,8.87
2019-02-21T08:57:06.422Z,9.18
2019-02-21T09:02:06.635Z,9.11
2019-02-21T09:07:06.480Z,9.11
2019-02-21T09:12:06.781Z,9.01
2019-02-21T09:17:06.722Z,8.87
2019-02-21T09:22:06.742Z,8.88
2019-02-21T09:26:06.997Z,8.82
2019-02-21T09:31:07.651Z,8.8
2019-02-21T09:36:06.824Z,8.79
2019-02-21T09:41:07.009Z,8.83
2019-02-21T09:46:06.976Z,8.88
2019-02-21T09:51:07.515Z,8.91
2019-02-21T09:56:06.751Z,8.79
2019-02-21T10:00:09.058Z,8.71
2019-02-21T10:05:07.025Z,8.82
2019-02-21T10:10:08.070Z,9.07
2019-02-21T10:15:07.832Z,9.17
2019-02-21T10:20:07.691Z,9.23
2019-02-21T10:25:07.092Z,9.4
2019-02-21T10:30:07.868Z,9.52
2019-02-21T10:35:06.090Z,9.55
2019-02-21T10:39:07.039Z,9.61
2019-02-21T10:40:06.984Z,9.61
2019-02-21T10:44:06.200Z,9.77
2019-02-21T10:49:06.859Z,9.91
2019-02-21T10:54:06.185Z,9.92
2019-02-21T10:59:07.002Z,10.42
2019-02-21T11:04:06.927Z,10.05
2019-02-21T11:09:07.358Z,10.23
2019-02-21T11:13:06.705Z,10.28
2019-02-21T11:18:06.603Z,10.58
2019-02-21T11:19:06.700Z,10.58
2019-02-21T11:23:07.513Z,11.09
2019-02-21T11:28:06.792Z,11.25
2019-02-21T11:33:06.586Z,11.14
2019-02-21T11:38:06.510Z,11.49
2019-02-21T11:43:07.403Z,11.34
2019-02-21T11:48:06.253Z,10.87
2019-02-21T11:52:10.983Z,11.09
2019-02-21T11:57:06.209Z,11.14
2019-02-21T12:02:06.435Z,11.13
2019-02-21T12:07:06.319Z,10.69
2019-02-21T12:12:06.797Z,10.7
2019-02-21T12:17:07.086Z,10.8
2019-02-21T12:22:06.405Z,10.84
2019-02-21T12:27:06.266Z,10.8
2019-02-21T12:31:07.306Z,11.09
2019-02-21T12:32:06.385Z,11.09
2019-02-21T12:36:06.399Z,11.01
2019-02-21T12:41:06.776Z,10.79
2019-02-21T12:46:07.278Z,10.7
2019-02-21T12:51:06.398Z,10.95
2019-02-21T12:56:06.335Z,11.16
2019-02-21T13:01:06.482Z,11.55
2019-02-21T13:06:06.365Z,11.62
2019-02-21T13:10:07.736Z,12.22
2019-02-21T13:15:07.815Z,11.29
2019-02-21T13:20:06.261Z,11.2
2019-02-21T13:25:06.191Z,11.3
2019-02-21T13:30:08.095Z,11.29
2019-02-21T13:35:06.806Z,11.34
2019-02-21T13:40:06.920Z,12.17
2019-02-21T13:44:06.817Z,11.55
2019-02-21T13:49:07.071Z,11.39
2019-02-21T13:54:06.999Z,11.55
2019-02-21T13:59:07.602Z,11.25
2019-02-21T14:04:06.238Z,11.05
2019-02-21T14:09:06.441Z,10.92
2019-02-21T14:14:06.220Z,10.79
2019-02-21T14:18:07.192Z,10.75
2019-02-21T14:23:06.476Z,10.74
2019-02-21T14:28:07.022Z,10.71
2019-02-21T14:33:06.463Z,10.65
2019-02-21T14:38:06.403Z,10.54
2019-02-21T14:43:06.923Z,10.57
2019-02-21T14:48:07.018Z,10.5
2019-02-21T14:52:06.996Z,10.45
2019-02-21T14:57:06.193Z,10.05
2019-02-21T15:02:06.585Z,9.74
2019-02-21T15:07:06.746Z,9.77
2019-02-21T15:12:06.118Z,9.53
2019-02-21T15:17:06.869Z,9.37
2019-02-21T15:22:06.143Z,9.36
2019-02-21T15:27:09.516Z,9.34
2019-02-21T15:31:06.878Z,9.33
2019-02-21T15:36:06.684Z,9.34
2019-02-21T15:41:07.556Z,9.51
2019-02-21T15:46:07.475Z,9.5
2019-02-21T15:51:06.479Z,9.38
2019-02-21T15:56:06.928Z,9.37
2019-02-21T16:01:07.728Z,9.49
2019-02-21T16:05:06.747Z,9.61
2019-02-21T16:10:07.106Z,9.45
2019-02-21T16:15:08.106Z,9.49
2019-02-21T16:20:07.391Z,9.41
2019-02-21T16:25:06.706Z,9.52
2019-02-21T16:30:07.966Z,9.36
2019-02-21T16:35:07.552Z,9.52
2019-02-21T16:39:07.268Z,9.41
2019-02-21T16:44:07.875Z,9.48
2019-02-21T16:49:06.623Z,9.49
2019-02-21T16:54:06.746Z,9.55
2019-02-21T16:59:06.789Z,9.5
2019-02-21T17:04:06.657Z,9.33
2019-02-21T17:09:07.748Z,9.31
2019-02-21T17:14:06.107Z,9.2
2019-02-21T17:18:06.849Z,9.16
2019-02-21T17:23:06.681Z,9.3
2019-02-21T17:28:06.571Z,9.23
2019-02-21T17:33:06.311Z,9.26
2019-02-21T17:38:06.225Z,9.21
2019-02-21T17:43:06.570Z,9.15
2019-02-21T17:48:06.301Z,9.16
2019-02-21T17:52:06.906Z,9.07
2019-02-21T17:57:06.122Z,9.08
2019-02-21T18:02:06.351Z,9.17
2019-02-21T18:07:06.783Z,9.06
2019-02-21T18:12:07.022Z,9.15
2019-02-21T18:17:07.117Z,9.19
2019-02-21T18:22:06.812Z,9.36
2019-02-21T18:27:06.038Z,9.51
2019-02-21T18:31:06.982Z,9.67
2019-02-21T18:36:07.255Z,9.7
2019-02-21T18:41:06.094Z,9.57
2019-02-21T18:46:06.936Z,9.7
2019-02-21T18:51:06.811Z,9.66
2019-02-21T18:56:07.662Z,9.34
2019-02-21T19:01:07.111Z,8.98
2019-02-21T19:05:06.517Z,8.87
2019-02-21T19:10:06.865Z,8.79
2019-02-21T19:15:08.160Z,8.57
2019-02-21T19:20:06.281Z,8.35
2019-02-21T19:25:06.294Z,8.29
2019-02-21T19:30:07.080Z,8.22
2019-02-21T19:35:06.322Z,8.19
2019-02-21T19:39:06.933Z,8.12
2019-02-21T19:44:09.947Z,8.07
2019-02-21T19:49:07.012Z,8.05
2019-02-21T19:54:07.562Z,8
2019-02-21T19:59:06.743Z,8
2019-02-21T20:04:06.242Z,7.98
2019-02-21T20:09:06.680Z,7.96
2019-02-21T20:14:06.686Z,7.93
2019-02-21T20:18:06.772Z,7.94
2019-02-21T20:23:07.652Z,7.97
2019-02-21T20:24:06.140Z,7.97
2019-02-21T20:28:06.115Z,7.93
2019-02-21T20:33:07.105Z,7.93
2019-02-21T20:38:06.381Z,7.92
2019-02-21T20:43:07.619Z,7.89
2019-02-21T20:48:06.956Z,7.9
2019-02-21T20:53:07.717Z,7.91
2019-02-21T20:57:06.949Z,7.89
2019-02-21T21:02:07.243Z,7.94
2019-02-21T21:07:06.586Z,7.91
2019-02-21T21:12:06.788Z,7.91
2019-02-21T21:17:08.183Z,7.93
2019-02-21T21:22:07.094Z,7.97
2019-02-21T21:27:07.697Z,7.96
2019-02-21T21:32:06.498Z,7.94
2019-02-21T21:36:06.944Z,7.93
2019-02-21T21:41:06.361Z,7.98
2019-02-21T21:46:06.027Z,7.99
2019-02-21T21:51:07.033Z,8.06
2019-02-21T21:56:07.054Z,8.17
2019-02-21T22:01:06.423Z,8.22
2019-02-21T22:06:06.288Z,8.22
2019-02-21T22:10:06.790Z,8.27
2019-02-21T22:15:08.400Z,8.27
2019-02-21T22:16:06.174Z,8.27
2019-02-21T22:20:06.853Z,8.27
2019-02-21T22:25:06.999Z,8.26
2019-02-21T22:30:09.077Z,8.28
2019-02-21T22:35:06.449Z,8.23
2019-02-21T22:40:07.027Z,8.26
2019-02-21T22:45:07.957Z,8.28
2019-02-21T22:49:07.071Z,8.2
2019-02-21T22:54:06.033Z,8.28
2019-02-21T22:59:06.086Z,8.28
2019-02-21T23:04:06.790Z,8.26
2019-02-21T23:09:07.815Z,8.21
2019-02-21T23:14:06.733Z,8.21
2019-02-21T23:19:06.225Z,8.22
2019-02-21T23:24:06.558Z,8.23
2019-02-21T23:28:06.230Z,8.22
2019-02-21T23:33:06.360Z,8.24
2019-02-21T23:38:06.394Z,8.32
2019-02-21T23:43:06.702Z,8.37
2019-02-21T23:48:06.355Z,8.31
2019-02-21T23:53:06.258Z,8.29
2019-02-21T23:58:06.204Z,8.26
